Delton, Michigan
Current Conditions -  °F | °C
As of 1:16 PM on Thursday 27 Nov 2014 (Local Time) from KBTL Reporting Station
Light Snow Light Snow  
Wind Chill: 24°   Ceiling: 1100
Heat Index: 32°   Visibility: 1.5mi
Dew Point: 27°   Wind: 10mph
Humidity: 82%   Direction: 330°NNW
Pressure: 30.17"   Gusts: NA
Location:  42.5°N, 85.41°W
Report Text: KBTL 271816Z 33009KT 1 1/2SM -SN FEW004 BKN011 OVC019 00/M03 A3017 RMK AO2 P0000 T00001028 $
Loading
Personal Weather Stations






























Interactive Weather Map New forecast layout! Learn more

10-Day Weather Forecast

Advertisements
Track Severe Weather on mobile